createdAt,value
2019-04-28T00:02:50.791Z,10.02
2019-04-28T00:05:54.541Z,9.86
2019-04-28T00:08:58.693Z,9.94
2019-04-28T00:12:02.665Z,9.87
2019-04-28T00:15:07.119Z,10.03
2019-04-28T00:18:11.954Z,9.96
2019-04-28T00:21:32.037Z,9.95
2019-04-28T00:24:43.120Z,9.97
2019-04-28T00:27:46.832Z,10.03
2019-04-28T00:30:51.718Z,10.00
2019-04-28T00:33:55.420Z,9.97
2019-04-28T00:37:24.240Z,9.91
2019-04-28T00:40:28.252Z,9.88
2019-04-28T00:43:32.036Z,9.91
2019-04-28T00:46:36.995Z,9.94
2019-04-28T00:49:46.759Z,9.93
2019-04-28T00:52:51.790Z,9.96
2019-04-28T00:55:56.030Z,9.95
2019-04-28T00:59:01.285Z,10.04
2019-04-28T01:02:11.579Z,9.95
2019-04-28T01:05:15.454Z,9.98
2019-04-28T01:08:20.928Z,9.94
2019-04-28T01:11:24.653Z,10.04
2019-04-28T01:14:28.376Z,10.09
2019-04-28T01:17:40.560Z,9.91
2019-04-28T01:20:46.016Z,9.96
2019-04-28T01:23:50.164Z,9.91
2019-04-28T01:26:55.959Z,9.86
2019-04-28T01:30:08.021Z,9.88
2019-04-28T01:33:12.331Z,9.95
2019-04-28T01:36:16.588Z,10.02
2019-04-28T01:39:20.293Z,9.96
2019-04-28T01:42:24.314Z,9.94
2019-04-28T01:45:29.996Z,9.96
2019-04-28T01:48:33.882Z,9.89
2019-04-28T01:51:37.719Z,9.94
2019-04-28T01:54:41.749Z,9.83
2019-04-28T01:57:45.449Z,9.89
2019-04-28T02:00:50.547Z,9.86
2019-04-28T02:03:54.749Z,9.92
2019-04-28T02:06:59.874Z,9.85
2019-04-28T02:10:03.882Z,9.87
2019-04-28T02:13:09.593Z,9.82
2019-04-28T02:16:13.405Z,9.79
2019-04-28T02:19:17.119Z,9.84
2019-04-28T02:22:26.156Z,9.81
2019-04-28T02:25:29.912Z,9.75
2019-04-28T02:28:33.562Z,9.88
2019-04-28T02:31:37.631Z,9.80
2019-04-28T02:34:41.512Z,9.83
2019-04-28T02:37:45.233Z,9.78
2019-04-28T02:40:50.454Z,9.76
2019-04-28T02:43:54.338Z,9.74
2019-04-28T02:47:00.717Z,9.71
2019-04-28T02:50:27.777Z,9.72
2019-04-28T02:53:34.344Z,9.68
2019-04-28T02:56:40.950Z,9.65
2019-04-28T02:59:44.853Z,9.59
2019-04-28T03:02:51.339Z,9.70
2019-04-28T03:05:54.807Z,9.60
2019-04-28T03:09:00.312Z,9.53
2019-04-28T03:12:04.338Z,9.47
2019-04-28T03:15:10.329Z,9.62
2019-04-28T03:18:13.939Z,9.48
2019-04-28T03:21:17.793Z,9.46
2019-04-28T03:24:22.381Z,9.43
2019-04-28T03:27:36.724Z,9.47
2019-04-28T03:31:06.603Z,9.50
2019-04-28T03:34:05.327Z,9.26
2019-04-28T03:37:11.301Z,9.29
2019-04-28T03:40:14.485Z,9.40
2019-04-28T03:43:20.985Z,9.27
2019-04-28T03:46:26.843Z,9.32
2019-04-28T03:49:34.895Z,9.34
2019-04-28T03:52:41.260Z,9.27
2019-04-28T03:55:44.645Z,9.13
2019-04-28T03:58:50.471Z,9.24
2019-04-28T04:01:59.362Z,9.29
2019-04-28T04:05:00.796Z,9.25
2019-04-28T04:08:04.775Z,9.20
2019-04-28T04:11:20.137Z,9.34
2019-04-28T04:14:31.866Z,9.24
2019-04-28T04:17:41.940Z,9.30
2019-04-28T04:20:45.647Z,9.20
2019-04-28T04:23:50.972Z,9.21
2019-04-28T04:26:54.874Z,9.13
2019-04-28T04:30:01.761Z,9.20
2019-04-28T04:33:04.690Z,9.18
2019-04-28T04:36:10.889Z,9.19
2019-04-28T04:39:14.106Z,9.21
2019-04-28T04:42:20.465Z,9.27
2019-04-28T04:45:23.864Z,9.19
2019-04-28T04:48:27.571Z,9.24
2019-04-28T04:51:31.822Z,9.18
2019-04-28T04:54:36.884Z,9.20
2019-04-28T04:57:40.956Z,9.18
2019-04-28T05:00:52.406Z,9.12
2019-04-28T05:03:59.632Z,9.16
2019-04-28T05:07:03.396Z,9.11
2019-04-28T05:10:07.292Z,9.23
2019-04-28T05:13:11.340Z,9.31
2019-04-28T05:16:15.382Z,9.18
2019-04-28T05:19:19.874Z,9.14
2019-04-28T05:22:25.325Z,9.37
2019-04-28T05:25:39.593Z,9.22
2019-04-28T05:28:50.475Z,9.22
2019-04-28T05:31:50.382Z,9.12
2019-04-28T05:34:54.218Z,9.25
2019-04-28T05:37:59.767Z,9.22
2019-04-28T05:41:03.564Z,9.14
2019-04-28T05:44:07.673Z,9.30
2019-04-28T05:47:11.718Z,9.21
2019-04-28T05:50:21.924Z,9.14
2019-04-28T05:53:40.341Z,9.20
2019-04-28T05:57:13.213Z,9.18
2019-04-28T06:00:29.687Z,9.17
2019-04-28T06:03:33.667Z,9.20
2019-04-28T06:06:40.566Z,9.18
2019-04-28T06:09:47.800Z,9.19
2019-04-28T06:12:51.790Z,9.25
2019-04-28T06:15:55.505Z,9.18
2019-04-28T06:19:00.057Z,9.11
2019-04-28T06:22:04.154Z,9.25
2019-04-28T06:25:08.081Z,9.22
2019-04-28T06:28:11.789Z,9.24
2019-04-28T06:31:15.848Z,9.26
2019-04-28T06:34:19.568Z,9.20
2019-04-28T06:37:23.275Z,9.25
2019-04-28T06:40:27.061Z,9.29
2019-04-28T06:43:30.759Z,9.23
2019-04-28T06:46:34.472Z,9.08
2019-04-28T06:49:38.290Z,9.04
2019-04-28T06:52:41.995Z,9.09
2019-04-28T06:55:45.762Z,9.16
2019-04-28T06:58:58.910Z,9.15
2019-04-28T07:01:54.911Z,8.99
2019-04-28T07:05:02.367Z,9.14
2019-04-28T07:08:04.318Z,8.92
2019-04-28T07:11:08.018Z,9.01
2019-04-28T07:14:11.741Z,8.99
2019-04-28T07:17:15.457Z,8.93
2019-04-28T07:20:37.395Z,8.99
2019-04-28T07:23:42.480Z,9.06
2019-04-28T07:26:46.201Z,9.00
2019-04-28T07:29:50.227Z,9.03
2019-04-28T07:32:54.032Z,9.08
2019-04-28T07:35:57.732Z,8.99
2019-04-28T07:39:01.707Z,9.12
2019-04-28T07:42:05.595Z,8.91
2019-04-28T07:45:10.251Z,8.88
2019-04-28T07:48:13.937Z,8.88
2019-04-28T07:51:18.416Z,8.76
2019-04-28T07:54:22.417Z,8.76
2019-04-28T07:57:26.137Z,8.91
2019-04-28T08:00:30.630Z,8.78
2019-04-28T08:03:34.352Z,8.76
2019-04-28T08:06:38.152Z,8.94
2019-04-28T08:09:41.934Z,8.79
2019-04-28T08:12:45.645Z,8.91
2019-04-28T08:15:49.436Z,8.78
2019-04-28T08:18:53.189Z,8.77
2019-04-28T08:21:56.889Z,8.80
2019-04-28T08:25:00.638Z,8.91
2019-04-28T08:28:04.422Z,8.88
2019-04-28T08:31:09.988Z,8.92
2019-04-28T08:34:13.859Z,8.96
2019-04-28T08:37:17.571Z,9.11
2019-04-28T08:40:21.672Z,9.13
2019-04-28T08:43:25.372Z,9.23
2019-04-28T08:46:29.389Z,9.21
2019-04-28T08:49:33.111Z,9.38
2019-04-28T08:52:37.094Z,9.17
2019-04-28T08:55:40.809Z,9.27
2019-04-28T08:58:44.548Z,9.51
2019-04-28T09:01:48.269Z,9.51
2019-04-28T09:04:51.978Z,9.57
2019-04-28T09:07:55.678Z,9.68
2019-04-28T09:10:59.668Z,9.75
2019-04-28T09:14:03.448Z,9.75
2019-04-28T09:17:07.469Z,9.80
2019-04-28T09:20:11.885Z,9.79
2019-04-28T09:23:15.659Z,9.70
2019-04-28T09:26:19.707Z,9.58
2019-04-28T09:29:23.743Z,9.51
2019-04-28T09:32:27.832Z,9.40
2019-04-28T09:35:31.750Z,9.67
2019-04-28T09:38:35.455Z,9.79
2019-04-28T09:41:41.480Z,9.97
2019-04-28T09:44:45.184Z,10.03
2019-04-28T09:47:48.938Z,10.11
2019-04-28T09:50:53.044Z,10.18
2019-04-28T09:53:56.755Z,10.40
2019-04-28T09:57:00.509Z,10.59
2019-04-28T10:00:05.135Z,10.77
2019-04-28T10:03:09.111Z,10.92
2019-04-28T10:06:12.945Z,11.19
2019-04-28T10:09:16.616Z,11.23
2019-04-28T10:12:27.001Z,11.14
2019-04-28T10:15:26.083Z,10.90
2019-04-28T10:18:30.098Z,10.84
2019-04-28T10:21:34.130Z,10.61
2019-04-28T10:24:37.847Z,10.53
2019-04-28T10:27:41.962Z,10.58
2019-04-28T10:30:46.067Z,10.82
2019-04-28T10:33:53.515Z,10.67
2019-04-28T10:36:57.580Z,10.67
2019-04-28T10:40:05.392Z,10.72
2019-04-28T10:43:09.189Z,10.72
2019-04-28T10:46:12.965Z,10.37
2019-04-28T10:49:16.762Z,10.55
2019-04-28T10:52:20.541Z,10.65
2019-04-28T10:55:24.246Z,10.88
2019-04-28T10:58:27.963Z,10.71
2019-04-28T11:01:31.687Z,10.65
2019-04-28T11:04:53.321Z,10.79
2019-04-28T11:07:57.265Z,10.56
2019-04-28T11:11:04.162Z,10.89
2019-04-28T11:14:08.144Z,10.89
2019-04-28T11:17:12.111Z,10.80
2019-04-28T11:20:15.970Z,11.01
2019-04-28T11:23:19.666Z,11.05
2019-04-28T11:26:23.377Z,10.78
2019-04-28T11:29:27.089Z,10.76
2019-04-28T11:32:30.838Z,10.81
2019-04-28T11:35:35.696Z,11.04
2019-04-28T11:38:39.764Z,11.16
2019-04-28T11:41:43.561Z,11.35
2019-04-28T11:44:47.607Z,11.60
2019-04-28T11:47:51.321Z,11.59
2019-04-28T11:50:55.109Z,11.64
2019-04-28T11:53:58.806Z,11.57
2019-04-28T11:57:02.923Z,11.43
2019-04-28T12:00:15.086Z,11.52
2019-04-28T12:03:18.797Z,11.39
2019-04-28T12:06:22.842Z,11.40
2019-04-28T12:09:37.678Z,11.78
2019-04-28T12:13:00.987Z,11.68
2019-04-28T12:16:22.664Z,12.09
2019-04-28T12:19:35.932Z,12.58
2019-04-28T12:22:39.655Z,12.34
2019-04-28T12:25:43.410Z,11.99
2019-04-28T12:28:47.102Z,12.03
2019-04-28T12:31:51.255Z,12.14
2019-04-28T12:34:55.018Z,12.37
2019-04-28T12:37:58.731Z,12.33
2019-04-28T12:41:02.449Z,12.11
2019-04-28T12:44:06.305Z,11.96
2019-04-28T12:47:10.025Z,11.84
2019-04-28T12:50:22.906Z,11.91
2019-04-28T12:53:26.972Z,11.92
2019-04-28T12:56:30.684Z,11.90
2019-04-28T12:59:40.866Z,11.79
2019-04-28T13:03:02.310Z,11.86
2019-04-28T13:06:08.362Z,11.79
2019-04-28T13:09:12.239Z,11.89
2019-04-28T13:12:15.953Z,11.79
2019-04-28T13:15:19.661Z,11.79
2019-04-28T13:18:23.725Z,11.82
2019-04-28T13:21:27.499Z,11.93
2019-04-28T13:24:31.222Z,12.10
2019-04-28T13:27:34.942Z,12.15
2019-04-28T13:30:38.658Z,12.43
2019-04-28T13:33:55.307Z,12.62
2019-04-28T13:36:47.852Z,12.51
2019-04-28T13:39:58.728Z,12.84
2019-04-28T13:43:02.438Z,13.30
2019-04-28T13:46:06.221Z,13.02
2019-04-28T13:49:11.720Z,13.29
2019-04-28T13:52:15.436Z,13.94
2019-04-28T13:55:37.310Z,14.51
2019-04-28T13:58:43.083Z,14.81
2019-04-28T14:02:04.549Z,15.18
2019-04-28T14:05:24.529Z,14.11
2019-04-28T14:08:28.319Z,14.09
2019-04-28T14:11:32.034Z,13.99
2019-04-28T14:14:35.758Z,14.21
2019-04-28T14:17:39.854Z,14.83
2019-04-28T14:20:43.533Z,14.38
2019-04-28T14:23:47.308Z,14.48
2019-04-28T14:26:51.380Z,14.05
2019-04-28T14:29:55.453Z,14.12
2019-04-28T14:32:59.198Z,14.04
2019-04-28T14:36:02.920Z,14.04
2019-04-28T14:39:09.017Z,14.04
2019-04-28T14:42:12.813Z,13.70
2019-04-28T14:45:16.535Z,13.43
2019-04-28T14:48:20.257Z,13.13
2019-04-28T14:51:23.961Z,13.24
2019-04-28T14:54:27.731Z,13.29
2019-04-28T14:57:31.512Z,13.47
2019-04-28T15:00:39.952Z,13.28
2019-04-28T15:03:46.432Z,13.39
2019-04-28T15:06:58.002Z,13.10
2019-04-28T15:10:06.344Z,13.06
2019-04-28T15:13:10.142Z,13.15
2019-04-28T15:16:14.224Z,13.23
2019-04-28T15:19:18.194Z,13.01
2019-04-28T15:22:22.551Z,12.98
2019-04-28T15:25:26.268Z,13.00
2019-04-28T15:28:29.977Z,12.83
2019-04-28T15:31:33.694Z,12.85
2019-04-28T15:34:37.439Z,12.85
2019-04-28T15:37:41.147Z,12.87
2019-04-28T15:40:45.146Z,12.99
2019-04-28T15:43:49.742Z,12.71
2019-04-28T15:46:53.539Z,12.92
2019-04-28T15:50:00.749Z,12.77
2019-04-28T15:53:05.245Z,12.96
2019-04-28T15:56:14.633Z,12.80
2019-04-28T15:59:19.544Z,12.85
2019-04-28T16:02:24.015Z,12.94
2019-04-28T16:05:27.837Z,12.57
2019-04-28T16:08:31.554Z,12.53
2019-04-28T16:11:35.274Z,12.84
2019-04-28T16:14:39.442Z,12.76
2019-04-28T16:17:43.169Z,12.76
2019-04-28T16:20:46.887Z,12.84
2019-04-28T16:23:50.886Z,12.61
2019-04-28T16:26:54.649Z,12.64
2019-04-28T16:29:58.356Z,12.74
2019-04-28T16:33:02.083Z,12.78
2019-04-28T16:36:06.111Z,12.91
2019-04-28T16:39:09.916Z,12.79
2019-04-28T16:42:13.735Z,12.72
2019-04-28T16:45:18.646Z,12.63
2019-04-28T16:48:22.918Z,12.72
2019-04-28T16:51:26.895Z,12.62
2019-04-28T16:54:30.604Z,12.54
2019-04-28T16:57:45.072Z,12.70
2019-04-28T17:01:15.049Z,12.48
2019-04-28T17:04:18.847Z,12.66
2019-04-28T17:07:22.640Z,12.57
2019-04-28T17:10:26.349Z,12.51
2019-04-28T17:13:30.329Z,12.56
2019-04-28T17:16:34.864Z,12.68
2019-04-28T17:19:39.019Z,12.59
2019-04-28T17:22:42.823Z,12.60
2019-04-28T17:25:46.844Z,12.56
2019-04-28T17:28:50.909Z,12.49
2019-04-28T17:31:54.658Z,12.47
2019-04-28T17:34:58.502Z,12.42
2019-04-28T17:38:06.711Z,12.56
2019-04-28T17:41:07.820Z,12.53
2019-04-28T17:44:11.799Z,12.50
2019-04-28T17:47:17.158Z,12.53
2019-04-28T17:50:21.627Z,12.43
2019-04-28T17:53:25.698Z,12.38
2019-04-28T17:56:29.399Z,12.44
2019-04-28T17:59:33.397Z,12.21
2019-04-28T18:02:55.253Z,12.26
2019-04-28T18:06:17.616Z,12.21
2019-04-28T18:09:14.891Z,12.11
2019-04-28T18:12:18.680Z,12.05
2019-04-28T18:15:47.856Z,11.77
2019-04-28T18:19:03.831Z,11.70
2019-04-28T18:22:07.749Z,11.67
2019-04-28T18:25:12.236Z,11.38
2019-04-28T18:28:15.950Z,11.28
2019-04-28T18:31:39.371Z,11.40
2019-04-28T18:34:48.222Z,11.37
2019-04-28T18:37:59.745Z,11.35
2019-04-28T18:41:21.573Z,11.12
2019-04-28T18:44:25.586Z,10.98
2019-04-28T18:47:30.030Z,10.82
2019-04-28T18:50:34.031Z,10.66
2019-04-28T18:53:38.083Z,10.67
2019-04-28T18:56:41.929Z,10.51
2019-04-28T18:59:45.939Z,10.43
2019-04-28T19:02:50.005Z,10.38
2019-04-28T19:05:54.052Z,10.27
2019-04-28T19:09:03.016Z,10.23
2019-04-28T19:12:22.862Z,10.16
2019-04-28T19:15:41.460Z,10.10
2019-04-28T19:18:45.749Z,10.17
2019-04-28T19:21:56.144Z,10.07
2019-04-28T19:24:59.928Z,9.97
2019-04-28T19:28:04.030Z,9.89
2019-04-28T19:31:08.115Z,9.84
2019-04-28T19:34:12.100Z,9.75
2019-04-28T19:37:15.896Z,9.72
2019-04-28T19:40:19.974Z,9.68
2019-04-28T19:43:24.068Z,9.65
2019-04-28T19:46:27.779Z,9.61
2019-04-28T19:49:31.482Z,9.56
2019-04-28T19:52:35.200Z,9.58
2019-04-28T19:55:43.812Z,9.53
2019-04-28T19:58:54.915Z,9.50
2019-04-28T20:01:58.902Z,9.43
2019-04-28T20:05:03.061Z,9.35
2019-04-28T20:08:07.080Z,9.39
2019-04-28T20:11:11.067Z,9.31
2019-04-28T20:14:14.771Z,9.21
2019-04-28T20:17:18.480Z,9.18
2019-04-28T20:20:22.190Z,9.08
2019-04-28T20:23:26.415Z,9.02
2019-04-28T20:26:30.138Z,9.10
2019-04-28T20:29:34.315Z,8.94
2019-04-28T20:32:45.615Z,8.90
2019-04-28T20:35:54.277Z,8.93
2019-04-28T20:39:01.919Z,8.91
2019-04-28T20:42:23.636Z,8.89
2019-04-28T20:45:27.744Z,8.77
2019-04-28T20:48:31.777Z,8.80
2019-04-28T20:51:35.786Z,8.77
2019-04-28T20:54:39.501Z,8.69
2019-04-28T20:57:43.521Z,8.69
2019-04-28T21:00:47.530Z,8.63
2019-04-28T21:03:51.434Z,8.50
2019-04-28T21:06:55.298Z,8.57
2019-04-28T21:09:59.378Z,8.47
2019-04-28T21:13:03.220Z,8.49
2019-04-28T21:16:07.590Z,8.51
2019-04-28T21:19:11.334Z,8.49
2019-04-28T21:22:15.033Z,8.46
2019-04-28T21:25:19.003Z,8.50
2019-04-28T21:28:23.171Z,8.41
2019-04-28T21:31:26.885Z,8.34
2019-04-28T21:34:30.856Z,8.37
2019-04-28T21:37:34.564Z,8.28
2019-04-28T21:40:38.946Z,8.33
2019-04-28T21:43:58.116Z,8.23
2019-04-28T21:47:08.325Z,8.29
2019-04-28T21:50:12.111Z,8.20
2019-04-28T21:53:15.814Z,8.17
2019-04-28T21:56:19.528Z,8.15
2019-04-28T21:59:23.243Z,8.20
2019-04-28T22:02:27.039Z,8.14
2019-04-28T22:05:30.836Z,8.22
2019-04-28T22:08:34.604Z,8.10
2019-04-28T22:11:38.381Z,8.03
2019-04-28T22:14:42.164Z,8.05
2019-04-28T22:17:45.877Z,8.08
2019-04-28T22:20:49.667Z,8.06
2019-04-28T22:24:08.012Z,8.11
2019-04-28T22:27:13.769Z,8.10
2019-04-28T22:30:18.634Z,8.11
2019-04-28T22:33:22.370Z,8.06
2019-04-28T22:36:27.011Z,8.02
2019-04-28T22:39:30.981Z,8.04
2019-04-28T22:42:34.690Z,8.12
2019-04-28T22:45:38.386Z,8.12
2019-04-28T22:48:42.166Z,8.07
2019-04-28T22:51:46.158Z,8.01
2019-04-28T22:55:09.213Z,8.07
2019-04-28T22:58:27.398Z,8.14
2019-04-28T23:01:34.062Z,8.15
2019-04-28T23:04:46.501Z,8.12
2019-04-28T23:07:50.855Z,8.11
2019-04-28T23:10:54.623Z,8.16
2019-04-28T23:13:58.344Z,8.12
2019-04-28T23:17:02.407Z,8.11
2019-04-28T23:20:09.481Z,8.11
2019-04-28T23:23:13.461Z,8.14
2019-04-28T23:26:17.270Z,8.09
2019-04-28T23:29:20.988Z,8.04
2019-04-28T23:32:24.703Z,8.01
2019-04-28T23:35:28.492Z,8.13
2019-04-28T23:38:32.205Z,8.06
2019-04-28T23:41:43.961Z,8.05
2019-04-28T23:44:47.752Z,7.98
2019-04-28T23:47:51.458Z,7.96
2019-04-28T23:51:05.012Z,7.97
2019-04-28T23:54:08.774Z,8.02
2019-04-28T23:57:12.480Z,7.98
